Time;durP1;ratioP1;P1;durP2;ratioP2;P2;SDS_P1;SDS_P2;PMS_P1;PMS_P2;Temp;Humidity;BMP_temperature;BMP_pressure;BME280_temperature;BME280_humidity;BME280_pressure;Samples;Min_cycle;Max_cycle;Signal;HPM_P1;HPM_P2
2022/02/24 00:00:21;;;;;;;6.73;4.50;;;5.30;89.20;;;;;;4993848;28;20994;-71
2022/02/24 00:02:48;;;;;;;8.10;4.20;;;5.40;89.30;;;;;;4990535;28;20476;-70
2022/02/24 00:05:14;;;;;;;10.53;4.80;;;5.40;89.30;;;;;;4993087;28;20943;-70
2022/02/24 00:07:40;;;;;;;6.63;4.20;;;5.50;89.50;;;;;;4994230;28;20504;-69
2022/02/24 00:10:09;;;;;;;9.20;4.40;;;5.50;88.90;;;;;;4992319;28;20861;-69
2022/02/24 00:12:36;;;;;;;7.10;3.70;;;5.50;88.90;;;;;;4990306;28;20936;-72
2022/02/24 00:15:04;;;;;;;6.47;4.13;;;5.60;88.90;;;;;;4993426;28;20445;-72
2022/02/24 00:17:29;;;;;;;8.77;3.97;;;5.70;88.70;;;;;;4995674;28;20979;-70
2022/02/24 00:19:55;;;;;;;7.63;4.40;;;5.80;88.40;;;;;;4992947;28;20525;-72
2022/02/24 00:22:21;;;;;;;7.07;3.80;;;5.90;88.00;;;;;;4992314;28;20536;-70
2022/02/24 00:24:48;;;;;;;7.03;4.07;;;5.90;87.60;;;;;;4993402;28;20429;-69
2022/02/24 00:27:14;;;;;;;5.47;4.20;;;5.90;87.30;;;;;;4991530;28;20437;-71
2022/02/24 00:29:40;;;;;;;6.83;3.67;;;6.00;87.30;;;;;;4992450;28;20516;-73
2022/02/24 00:32:06;;;;;;;6.27;4.00;;;6.00;87.30;;;;;;4989788;28;20419;-71
2022/02/24 00:34:32;;;;;;;4.70;3.50;;;6.10;87.10;;;;;;4991428;28;20187;-71
2022/02/24 00:37:00;;;;;;;6.90;3.57;;;6.20;87.00;;;;;;4992546;28;20440;-70
2022/02/24 00:39:26;;;;;;;6.97;3.50;;;6.20;86.60;;;;;;4992241;28;20425;-70
2022/02/24 00:41:52;;;;;;;9.00;3.53;;;6.30;86.30;;;;;;4992354;28;20484;-70
2022/02/24 00:44:18;;;;;;;7.83;3.50;;;6.30;86.20;;;;;;4992290;28;20512;-70
2022/02/24 00:46:43;;;;;;;6.60;3.97;;;6.40;86.00;;;;;;4992539;28;20270;-72
2022/02/24 00:49:09;;;;;;;5.67;3.50;;;6.60;85.70;;;;;;4991869;28;20189;-70
2022/02/24 00:51:35;;;;;;;5.73;3.70;;;6.70;85.00;;;;;;4991243;28;20210;-70
2022/02/24 00:54:02;;;;;;;6.13;3.63;;;6.70;84.90;;;;;;4991259;28;20269;-70
2022/02/24 00:56:28;;;;;;;6.60;4.13;;;6.80;84.40;;;;;;4993263;28;20454;-72
2022/02/24 00:58:54;;;;;;;4.40;3.43;;;6.70;84.10;;;;;;4991864;28;20469;-72
2022/02/24 01:01:19;;;;;;;9.97;3.33;;;6.70;84.30;;;;;;4992453;28;20853;-72
2022/02/24 01:03:45;;;;;;;4.80;3.20;;;6.70;84.40;;;;;;4992779;28;20280;-70
2022/02/24 01:06:11;;;;;;;6.93;3.27;;;6.80;84.30;;;;;;4987663;28;20183;-70
2022/02/24 01:08:37;;;;;;;6.20;3.10;;;6.80;84.30;;;;;;5005893;28;20215;-72
2022/02/24 01:11:03;;;;;;;10.13;3.57;;;6.80;84.10;;;;;;5004092;28;20415;-72
2022/02/24 01:13:30;;;;;;;6.03;3.50;;;6.90;84.10;;;;;;5010863;28;20210;-72
2022/02/24 01:15:55;;;;;;;5.77;3.40;;;6.90;84.10;;;;;;5004565;28;20433;-70
2022/02/24 01:18:21;;;;;;;9.70;3.07;;;6.90;84.00;;;;;;5000713;28;20792;-70
2022/02/24 01:20:47;;;;;;;6.50;3.30;;;7.00;83.80;;;;;;4997306;28;20806;-73
2022/02/24 01:23:13;;;;;;;6.10;3.20;;;6.90;83.70;;;;;;4990986;28;20525;-74
2022/02/24 01:25:39;;;;;;;6.70;3.70;;;6.90;83.80;;;;;;4988501;28;20971;-73
2022/02/24 01:28:05;;;;;;;3.67;2.60;;;6.90;84.00;;;;;;4992588;28;20422;-73
2022/02/24 01:30:31;;;;;;;6.67;3.30;;;6.90;84.00;;;;;;4995099;28;20950;-69
2022/02/24 01:32:57;;;;;;;6.33;3.40;;;6.90;84.30;;;;;;4995723;28;20979;-71
2022/02/24 01:35:24;;;;;;;10.63;3.70;;;6.90;84.40;;;;;;4993582;28;20426;-69
2022/02/24 01:37:49;;;;;;;5.00;3.80;;;6.90;84.40;;;;;;4991763;28;20434;-72
2022/02/24 01:40:16;;;;;;;5.50;3.23;;;6.90;84.60;;;;;;4990461;28;20806;-70
2022/02/24 01:42:43;;;;;;;6.60;3.53;;;7.00;84.40;;;;;;4992762;28;20489;-70
2022/02/24 01:45:10;;;;;;;4.70;3.10;;;7.00;84.40;;;;;;4990743;28;20423;-71
2022/02/24 01:47:36;;;;;;;8.10;3.70;;;7.10;84.00;;;;;;4986197;28;20409;-69
2022/02/24 01:50:05;;;;;;;4.80;2.80;;;7.10;83.70;;;;;;4991105;28;20935;-70
2022/02/24 01:52:30;;;;;;;4.13;2.93;;;7.10;83.70;;;;;;4990472;28;21153;-68
2022/02/24 01:54:56;;;;;;;4.27;2.97;;;7.20;83.70;;;;;;4991422;28;20425;-70
2022/02/24 01:57:22;;;;;;;5.47;3.47;;;7.20;83.40;;;;;;4991417;28;20186;-70
2022/02/24 01:59:49;;;;;;;5.10;3.10;;;7.30;83.30;;;;;;4989295;28;20197;-70
2022/02/24 02:02:15;;;;;;;9.87;4.03;;;7.20;83.10;;;;;;4992111;28;20451;-70
2022/02/24 02:04:41;;;;;;;6.30;3.40;;;7.30;83.30;;;;;;4997461;28;20497;-69
2022/02/24 02:07:07;;;;;;;4.70;3.10;;;7.20;83.10;;;;;;4991776;28;20418;-72
2022/02/24 02:09:34;;;;;;;4.73;3.40;;;7.20;83.60;;;;;;4990502;28;20476;-69
2022/02/24 02:12:00;;;;;;;6.37;3.00;;;7.20;83.60;;;;;;4990433;28;20473;-70
2022/02/24 02:14:26;;;;;;;4.50;3.03;;;7.20;83.60;;;;;;4989588;28;21038;-71
2022/02/24 02:16:52;;;;;;;8.63;4.10;;;7.20;83.60;;;;;;4990911;28;20191;-72
2022/02/24 02:19:19;;;;;;;4.80;3.13;;;7.20;83.70;;;;;;4990152;28;20183;-71
2022/02/24 02:21:46;;;;;;;4.77;3.30;;;7.20;83.70;;;;;;4990818;28;20425;-73
2022/02/24 02:24:12;;;;;;;7.03;3.83;;;7.20;83.70;;;;;;4990137;28;20987;-70
2022/02/24 02:26:39;;;;;;;7.20;3.40;;;7.20;83.70;;;;;;4990762;28;20429;-73
2022/02/24 02:29:08;;;;;;;6.60;3.37;;;7.20;83.80;;;;;;4990033;28;20424;-71
2022/02/24 02:31:35;;;;;;;5.27;3.27;;;7.20;83.80;;;;;;4990266;28;20402;-70
2022/02/24 02:34:05;;;;;;;4.90;2.90;;;7.30;83.70;;;;;;4990288;28;20438;-69
2022/02/24 02:36:32;;;;;;;9.43;3.70;;;7.30;83.60;;;;;;4991091;28;20985;-73
2022/02/24 02:38:58;;;;;;;6.43;3.70;;;7.30;83.60;;;;;;4983160;28;20442;-71
2022/02/24 02:41:33;;;;;;;5.10;3.50;;;7.30;83.70;;;;;;4989734;28;20894;-71
2022/02/24 02:44:00;;;;;;;5.23;3.70;;;7.40;83.40;;;;;;4987655;28;20229;-69
2022/02/24 02:46:27;;;;;;;4.30;3.17;;;7.30;83.60;;;;;;4991215;28;20413;-70
2022/02/24 02:48:53;;;;;;;7.23;3.33;;;7.30;83.70;;;;;;4990066;28;20410;-71
2022/02/24 02:51:19;;;;;;;6.77;3.53;;;7.30;83.60;;;;;;4990524;28;20438;-70
2022/02/24 02:53:45;;;;;;;6.93;3.63;;;7.30;83.40;;;;;;4990365;28;20473;-70
2022/02/24 02:56:11;;;;;;;11.60;3.77;;;7.30;83.60;;;;;;4990785;28;20457;-70
2022/02/24 02:58:37;;;;;;;5.63;3.47;;;7.10;83.70;;;;;;4985281;28;20179;-71
2022/02/24 03:01:04;;;;;;;6.60;3.40;;;7.20;84.10;;;;;;4992065;28;20436;-70
2022/02/24 03:03:30;;;;;;;5.83;3.43;;;7.10;84.00;;;;;;4990340;28;20979;-70
2022/02/24 03:05:56;;;;;;;4.40;3.20;;;7.20;84.00;;;;;;4990930;28;20425;-71
2022/02/24 03:08:22;;;;;;;7.33;3.40;;;7.10;84.00;;;;;;4989303;28;20277;-69
2022/02/24 03:10:49;;;;;;;5.20;3.20;;;7.10;84.10;;;;;;4989843;28;20434;-70
2022/02/24 03:13:15;;;;;;;5.97;3.33;;;7.10;84.30;;;;;;4991243;28;20438;-70
2022/02/24 03:15:42;;;;;;;4.77;3.30;;;7.10;84.10;;;;;;4991203;28;20437;-70
2022/02/24 03:18:09;;;;;;;6.07;3.30;;;7.10;84.60;;;;;;4992370;28;20421;-71
2022/02/24 03:20:34;;;;;;;6.17;3.90;;;7.10;84.60;;;;;;4990565;28;21590;-70
2022/02/24 03:23:01;;;;;;;4.27;2.90;;;7.00;84.90;;;;;;4990651;28;20469;-73
2022/02/24 03:25:28;;;;;;;4.47;3.10;;;7.10;84.70;;;;;;4987734;28;20758;-71
2022/02/24 03:27:54;;;;;;;6.03;3.60;;;7.10;84.70;;;;;;4990620;28;20417;-70
2022/02/24 03:30:20;;;;;;;7.40;2.90;;;7.20;84.70;;;;;;4990683;28;20477;-72
2022/02/24 03:32:46;;;;;;;6.10;3.67;;;7.20;84.60;;;;;;4989950;28;21278;-70
2022/02/24 03:35:13;;;;;;;6.07;3.70;;;7.20;84.60;;;;;;4990220;28;21033;-70
2022/02/24 03:37:39;;;;;;;7.73;3.63;;;7.30;84.10;;;;;;4991480;28;20191;-69
2022/02/24 03:40:06;;;;;;;5.07;3.63;;;7.30;84.00;;;;;;4984420;28;20428;-70
2022/02/24 03:42:33;;;;;;;5.40;3.40;;;7.30;83.80;;;;;;4986452;28;20445;-71
2022/02/24 03:44:59;;;;;;;5.63;3.33;;;7.30;83.80;;;;;;4994187;28;20417;-71
2022/02/24 03:47:25;;;;;;;5.30;3.17;;;7.30;84.00;;;;;;4994679;28;20421;-70
2022/02/24 03:49:51;;;;;;;6.03;4.00;;;7.30;84.10;;;;;;4992134;28;20417;-70
2022/02/24 03:52:18;;;;;;;5.10;3.10;;;7.30;84.10;;;;;;4993007;28;20437;-70
2022/02/24 03:54:45;;;;;;;4.53;3.10;;;7.40;84.00;;;;;;4993772;28;20429;-69
2022/02/24 03:57:11;;;;;;;5.17;3.00;;;7.40;83.60;;;;;;4993759;28;20483;-71
2022/02/24 03:59:37;;;;;;;4.70;3.10;;;7.50;83.40;;;;;;4992602;28;20436;-72
2022/02/24 04:02:07;;;;;;;4.67;2.73;;;7.50;83.40;;;;;;4992963;28;20430;-70
2022/02/24 04:04:33;;;;;;;8.03;3.17;;;7.50;83.60;;;;;;4992395;28;20480;-70
2022/02/24 04:07:00;;;;;;;8.93;3.40;;;7.50;83.40;;;;;;4991811;28;20509;-71
2022/02/24 04:09:26;;;;;;;5.90;3.40;;;7.50;83.10;;;;;;4992960;28;20493;-72
2022/02/24 04:11:52;;;;;;;8.33;3.20;;;7.60;83.00;;;;;;4991646;28;20473;-73
2022/02/24 04:14:17;;;;;;;5.70;3.53;;;7.60;83.10;;;;;;4992493;28;20978;-73
2022/02/24 04:16:43;;;;;;;6.20;3.30;;;7.50;83.30;;;;;;4993176;28;20660;-72
2022/02/24 04:19:09;;;;;;;7.30;3.07;;;7.40;83.60;;;;;;4989905;28;20241;-73
2022/02/24 04:21:35;;;;;;;5.23;3.10;;;7.40;84.00;;;;;;4993078;28;20196;-74
2022/02/24 04:24:02;;;;;;;4.27;2.90;;;7.40;83.80;;;;;;4992213;28;20222;-72
2022/02/24 04:26:27;;;;;;;4.10;2.77;;;7.40;84.10;;;;;;4993477;28;20566;-74
2022/02/24 04:28:53;;;;;;;5.50;3.40;;;7.40;84.00;;;;;;4995322;28;20954;-74
2022/02/24 04:31:19;;;;;;;7.57;3.33;;;7.40;84.10;;;;;;4997229;28;20191;-72
2022/02/24 04:33:45;;;;;;;5.87;3.30;;;7.30;84.10;;;;;;4994759;28;20210;-74
2022/02/24 04:36:10;;;;;;;7.37;3.53;;;7.30;84.40;;;;;;4993419;28;20665;-73
2022/02/24 04:38:36;;;;;;;8.83;3.93;;;7.30;84.40;;;;;;4992204;28;20190;-73
2022/02/24 04:41:02;;;;;;;5.10;3.30;;;7.30;84.40;;;;;;4992640;28;20187;-75
2022/02/24 04:43:28;;;;;;;4.77;3.50;;;7.30;84.40;;;;;;4986545;28;20704;-73
2022/02/24 04:45:53;;;;;;;4.73;3.10;;;7.30;84.30;;;;;;4994189;28;20780;-73
2022/02/24 04:48:21;;;;;;;6.70;3.13;;;7.30;84.40;;;;;;4994427;28;20214;-70
2022/02/24 04:50:47;;;;;;;8.10;3.37;;;7.30;84.30;;;;;;4995548;28;20429;-72
2022/02/24 04:53:13;;;;;;;5.60;3.30;;;7.40;84.10;;;;;;4993039;28;20453;-74
2022/02/24 04:55:39;;;;;;;5.67;3.00;;;7.40;83.80;;;;;;4992283;28;20448;-74
2022/02/24 04:58:05;;;;;;;6.10;3.80;;;7.40;84.00;;;;;;4991465;28;20936;-72
2022/02/24 05:00:31;;;;;;;11.47;3.67;;;7.40;84.00;;;;;;4992824;28;20421;-73
2022/02/24 05:02:57;;;;;;;5.70;3.60;;;7.50;84.00;;;;;;4989712;28;20514;-74
2022/02/24 05:05:23;;;;;;;7.87;4.07;;;7.50;83.70;;;;;;4996048;28;20555;-71
2022/02/24 05:07:49;;;;;;;8.17;3.70;;;7.40;83.70;;;;;;4993228;28;20183;-71
2022/02/24 05:10:15;;;;;;;10.00;3.77;;;7.50;83.80;;;;;;4983148;28;20432;-73
2022/02/24 05:12:41;;;;;;;9.83;3.60;;;7.40;83.70;;;;;;4991357;28;20238;-70
2022/02/24 05:15:07;;;;;;;7.50;3.83;;;7.40;83.70;;;;;;4991817;28;20472;-71
2022/02/24 05:17:34;;;;;;;8.90;4.17;;;7.40;84.00;;;;;;4986915;28;20426;-71
2022/02/24 05:20:00;;;;;;;5.53;3.50;;;7.30;84.10;;;;;;4988999;28;20421;-73
2022/02/24 05:22:26;;;;;;;6.43;3.80;;;7.30;84.30;;;;;;4986033;28;20438;-73
2022/02/24 05:24:52;;;;;;;7.50;3.77;;;7.20;84.60;;;;;;4992716;28;20421;-73
2022/02/24 05:27:18;;;;;;;12.20;3.90;;;7.20;84.60;;;;;;4992086;28;20441;-72
2022/02/24 05:29:44;;;;;;;7.47;4.50;;;7.20;84.70;;;;;;4992187;28;20181;-72
2022/02/24 05:32:10;;;;;;;6.47;4.07;;;7.10;85.20;;;;;;4991613;28;20453;-72
2022/02/24 05:34:36;;;;;;;7.13;3.97;;;7.00;85.50;;;;;;4992419;28;20441;-71
2022/02/24 05:37:01;;;;;;;7.37;3.80;;;7.00;85.60;;;;;;4990152;28;20190;-71
2022/02/24 05:39:27;;;;;;;8.60;4.10;;;6.90;85.90;;;;;;4989773;28;20276;-72
2022/02/24 05:41:53;;;;;;;12.23;4.37;;;6.90;86.20;;;;;;4992531;28;20421;-73
2022/02/24 05:44:19;;;;;;;10.43;4.80;;;6.80;86.30;;;;;;4990932;28;20465;-70
2022/02/24 05:46:45;;;;;;;8.83;4.37;;;6.80;86.80;;;;;;4991437;28;20440;-72
2022/02/24 05:49:16;;;;;;;6.50;3.97;;;6.80;86.90;;;;;;4990524;28;20546;-72
2022/02/24 05:51:42;;;;;;;13.60;4.77;;;6.80;86.80;;;;;;4990801;28;20421;-71
2022/02/24 05:54:08;;;;;;;12.17;5.33;;;6.80;86.80;;;;;;4990374;28;20433;-71
2022/02/24 05:56:34;;;;;;;9.10;5.03;;;6.80;86.90;;;;;;4992039;28;20418;-74
2022/02/24 05:59:00;;;;;;;8.83;4.73;;;6.80;86.80;;;;;;4990069;28;20768;-72
2022/02/24 06:01:25;;;;;;;8.83;4.50;;;6.80;86.60;;;;;;4991001;28;20261;-74
2022/02/24 06:03:52;;;;;;;9.27;4.70;;;6.80;86.50;;;;;;4992944;28;20667;-73
2022/02/24 06:06:18;;;;;;;11.63;5.63;;;6.80;86.60;;;;;;4996735;28;20791;-73
2022/02/24 06:08:44;;;;;;;8.13;4.83;;;6.80;86.80;;;;;;4991342;28;20458;-70
2022/02/24 06:11:09;;;;;;;11.53;5.77;;;6.80;86.60;;;;;;4991353;28;20209;-72
2022/02/24 06:13:35;;;;;;;12.27;5.47;;;6.80;86.50;;;;;;4990433;28;20218;-71
2022/02/24 06:16:01;;;;;;;11.10;5.60;;;6.80;86.50;;;;;;4990954;28;20267;-72
2022/02/24 06:18:27;;;;;;;15.60;6.40;;;6.80;86.80;;;;;;4990271;28;21257;-72
2022/02/24 06:20:53;;;;;;;8.07;5.30;;;6.80;86.80;;;;;;4991273;28;20496;-72
2022/02/24 06:23:19;;;;;;;13.73;5.87;;;6.80;86.80;;;;;;4990624;28;20217;-73
2022/02/24 06:25:45;;;;;;;9.40;5.43;;;6.80;86.90;;;;;;4991059;28;20190;-73
2022/02/24 06:28:11;;;;;;;10.83;5.70;;;6.80;86.80;;;;;;4989657;28;20445;-73
2022/02/24 06:30:37;;;;;;;9.00;5.43;;;6.80;86.80;;;;;;4990604;28;20452;-73
2022/02/24 06:33:04;;;;;;;12.70;5.90;;;6.80;86.80;;;;;;4989892;28;20280;-73
2022/02/24 06:35:30;;;;;;;10.13;5.93;;;6.80;86.80;;;;;;4990639;28;20979;-72
2022/02/24 06:37:55;;;;;;;12.63;6.57;;;6.90;86.50;;;;;;4989869;28;20432;-71
2022/02/24 06:40:21;;;;;;;10.80;5.77;;;6.80;86.30;;;;;;4990273;28;20429;-73
2022/02/24 06:42:48;;;;;;;14.63;6.73;;;6.80;86.50;;;;;;4989517;28;20265;-72
2022/02/24 06:45:14;;;;;;;15.60;7.03;;;6.80;86.50;;;;;;4986802;28;20318;-72
2022/02/24 06:47:40;;;;;;;12.27;6.20;;;6.80;86.30;;;;;;4988680;28;20452;-74
2022/02/24 06:50:06;;;;;;;18.67;7.93;;;6.90;86.30;;;;;;4989649;28;20444;-71
2022/02/24 06:52:33;;;;;;;14.43;6.80;;;6.90;86.30;;;;;;4988558;28;20854;-72
2022/02/24 06:54:58;;;;;;;8.90;5.50;;;6.90;86.20;;;;;;4990070;28;20422;-73
2022/02/24 06:57:24;;;;;;;11.10;5.93;;;6.90;86.20;;;;;;4989472;28;20979;-72
2022/02/24 06:59:50;;;;;;;12.20;7.60;;;6.90;86.00;;;;;;4989897;28;20735;-70
2022/02/24 07:02:16;;;;;;;12.93;7.27;;;6.90;86.20;;;;;;4989831;28;20197;-72
2022/02/24 07:04:41;;;;;;;12.10;6.80;;;6.90;86.20;;;;;;4984195;28;21068;-70
2022/02/24 07:07:10;;;;;;;15.50;6.57;;;6.90;86.00;;;;;;4989064;28;20669;-72
2022/02/24 07:09:37;;;;;;;10.20;6.37;;;7.00;86.00;;;;;;4994282;28;20183;-71
2022/02/24 07:12:03;;;;;;;11.53;6.70;;;7.00;85.70;;;;;;4991008;28;20486;-72
2022/02/24 07:14:29;;;;;;;11.73;6.90;;;7.00;85.50;;;;;;4990301;28;20537;-71
2022/02/24 07:16:55;;;;;;;14.30;7.67;;;7.00;85.50;;;;;;4986343;28;20422;-70
2022/02/24 07:19:21;;;;;;;15.40;6.77;;;7.10;85.50;;;;;;4992666;28;20253;-73
2022/02/24 07:21:46;;;;;;;13.33;7.50;;;7.10;85.30;;;;;;4994048;28;20516;-74
2022/02/24 07:24:12;;;;;;;14.13;7.13;;;7.10;85.20;;;;;;4989585;28;20211;-74
2022/02/24 07:26:38;;;;;;;14.53;6.60;;;7.10;85.00;;;;;;4993012;28;20721;-74
2022/02/24 07:29:03;;;;;;;14.23;6.90;;;7.20;85.20;;;;;;4993374;28;20241;-73
2022/02/24 07:31:29;;;;;;;13.33;6.50;;;7.30;85.00;;;;;;4993875;28;20313;-74
2022/02/24 07:33:55;;;;;;;12.53;6.60;;;7.30;84.60;;;;;;4993592;28;20579;-74
2022/02/24 07:36:21;;;;;;;14.40;6.23;;;7.30;84.40;;;;;;4994689;28;20668;-75
2022/02/24 07:38:47;;;;;;;29.63;8.83;;;7.40;84.30;;;;;;4989979;28;20416;-72
2022/02/24 07:41:12;;;;;;;13.73;6.37;;;7.40;84.10;;;;;;4994625;28;20190;-71
2022/02/24 07:43:38;;;;;;;11.80;6.20;;;7.40;84.00;;;;;;4993620;28;20214;-74
2022/02/24 07:46:04;;;;;;;11.97;6.50;;;7.40;83.70;;;;;;4994175;28;20710;-74
2022/02/24 07:48:30;;;;;;;8.80;6.00;;;7.50;83.70;;;;;;4992111;28;20187;-73
2022/02/24 07:50:56;;;;;;;15.87;7.57;;;7.50;83.70;;;;;;4993717;28;20175;-72
2022/02/24 07:53:22;;;;;;;11.60;6.63;;;7.50;83.60;;;;;;4994941;28;20206;-73
2022/02/24 07:55:49;;;;;;;13.50;6.70;;;7.60;83.10;;;;;;4994772;28;20459;-72
2022/02/24 07:58:15;;;;;;;11.03;6.23;;;7.60;82.80;;;;;;4993255;28;20425;-74
2022/02/24 08:00:41;;;;;;;10.50;5.80;;;7.70;82.80;;;;;;4994022;28;20810;-74
2022/02/24 08:03:07;;;;;;;8.67;5.90;;;7.70;82.80;;;;;;4993467;28;20222;-75
2022/02/24 08:05:33;;;;;;;12.10;6.20;;;7.80;82.10;;;;;;4994015;28;20551;-74
2022/02/24 08:07:59;;;;;;;12.13;6.40;;;7.90;82.10;;;;;;4993192;28;20183;-74
2022/02/24 08:10:25;;;;;;;14.07;5.93;;;8.00;81.70;;;;;;4992374;28;20436;-72
2022/02/24 08:12:51;;;;;;;10.73;5.53;;;8.00;81.20;;;;;;4993052;28;20958;-74
2022/02/24 08:15:19;;;;;;;9.27;5.57;;;8.10;80.90;;;;;;4991209;28;20445;-72
2022/02/24 08:17:45;;;;;;;15.17;5.70;;;8.20;80.60;;;;;;4992921;28;20441;-73
2022/02/24 08:20:12;;;;;;;8.53;5.10;;;8.20;79.90;;;;;;4993498;28;20426;-72
2022/02/24 08:22:41;;;;;;;8.23;4.40;;;8.20;79.60;;;;;;4987536;28;20480;-74
2022/02/24 08:25:09;;;;;;;9.37;5.77;;;8.30;79.60;;;;;;4988373;28;20426;-73
2022/02/24 08:27:35;;;;;;;12.63;4.83;;;8.40;78.90;;;;;;4985292;28;20425;-73
2022/02/24 08:30:03;;;;;;;8.60;4.90;;;8.40;78.70;;;;;;4990943;28;20483;-74
2022/02/24 08:32:29;;;;;;;8.13;4.83;;;8.50;78.40;;;;;;4985983;28;20446;-71
2022/02/24 08:34:56;;;;;;;12.70;5.60;;;8.50;78.40;;;;;;4981274;28;20442;-71
2022/02/24 08:37:22;;;;;;;11.47;5.67;;;8.60;78.40;;;;;;4998825;28;20473;-71
2022/02/24 08:39:48;;;;;;;8.40;4.37;;;8.60;78.30;;;;;;5002291;28;20441;-71
2022/02/24 08:42:13;;;;;;;9.40;4.90;;;8.80;78.00;;;;;;4995498;28;20560;-72
2022/02/24 08:44:43;;;;;;;7.27;4.40;;;8.90;77.10;;;;;;5003981;28;20238;-72
2022/02/24 08:47:12;;;;;;;13.67;5.30;;;8.90;76.40;;;;;;4989902;28;20183;-71
2022/02/24 08:49:38;;;;;;;15.70;5.07;;;9.00;76.10;;;;;;4989786;28;20418;-71
2022/02/24 08:52:05;;;;;;;8.07;4.30;;;9.10;75.80;;;;;;4991003;28;20511;-71
2022/02/24 08:57:06;;;;;;;9.10;5.20;;;9.30;75.40;;;;;;5667147;22;20665;-71
2022/02/24 08:59:32;;;;;;;9.90;5.60;;;9.30;75.40;;;;;;4986014;28;20452;-71
2022/02/24 09:01:58;;;;;;;5.43;3.40;;;9.50;75.10;;;;;;4991899;28;20214;-71
2022/02/24 09:04:24;;;;;;;6.53;4.00;;;9.60;73.50;;;;;;4989959;28;21003;-71
2022/02/24 09:06:50;;;;;;;7.33;3.87;;;9.70;73.30;;;;;;4987971;28;20210;-71
2022/02/24 09:09:16;;;;;;;7.57;3.87;;;9.80;72.90;;;;;;4971691;28;20184;-71
2022/02/24 09:11:42;;;;;;;9.17;4.03;;;9.90;72.40;;;;;;4973795;28;20500;-71
2022/02/24 09:14:08;;;;;;;5.93;3.30;;;10.10;71.70;;;;;;4964321;28;20475;-70
2022/02/24 09:16:34;;;;;;;6.03;3.63;;;10.10;71.40;;;;;;4968747;28;20467;-71
2022/02/24 09:19:00;;;;;;;7.60;3.43;;;10.20;71.30;;;;;;4981082;28;20532;-72
2022/02/24 09:21:26;;;;;;;5.77;4.27;;;10.30;71.60;;;;;;4968307;28;20469;-71
2022/02/24 09:23:52;;;;;;;4.97;3.33;;;10.50;70.80;;;;;;4968116;28;21059;-69
2022/02/24 09:26:18;;;;;;;8.63;4.17;;;10.60;70.70;;;;;;4968345;28;20759;-70
2022/02/24 09:28:44;;;;;;;5.57;3.73;;;10.80;70.40;;;;;;4966865;28;20250;-71
2022/02/24 09:31:09;;;;;;;5.77;3.20;;;10.80;69.90;;;;;;4961769;28;20534;-71
2022/02/24 09:33:35;;;;;;;6.73;3.53;;;10.90;69.50;;;;;;4958860;28;20189;-69
2022/02/24 09:36:01;;;;;;;7.57;3.27;;;11.00;69.40;;;;;;4961710;28;20187;-69
2022/02/24 09:38:27;;;;;;;5.17;3.67;;;11.10;69.40;;;;;;4964152;28;20294;-69
2022/02/24 09:40:56;;;;;;;7.47;3.80;;;11.10;69.10;;;;;;4960655;28;20514;-70
2022/02/24 09:43:31;;;;;;;12.03;5.33;;;11.20;69.10;;;;;;4968542;28;20225;-70
2022/02/24 09:46:02;;;;;;;8.73;4.93;;;11.20;68.90;;;;;;4970294;28;20437;-71
2022/02/24 09:48:31;;;;;;;8.77;4.27;;;11.30;68.90;;;;;;4965857;28;20834;-71
2022/02/24 09:50:58;;;;;;;11.63;4.83;;;11.40;69.10;;;;;;4968148;28;21115;-70
2022/02/24 09:53:26;;;;;;;11.87;3.87;;;11.60;68.50;;;;;;4961093;28;20431;-72
2022/02/24 09:55:52;;;;;;;5.30;3.57;;;11.60;68.00;;;;;;4966604;28;20431;-68
2022/02/24 09:58:18;;;;;;;6.53;2.87;;;11.70;67.50;;;;;;4963416;28;20465;-69
2022/02/24 10:00:44;;;;;;;5.30;2.80;;;11.80;66.00;;;;;;4969451;28;20807;-70
2022/02/24 10:03:29;;;;;;;6.60;3.00;;;11.80;66.00;;;;;;4968766;28;20222;-71
2022/02/24 10:05:56;;;;;;;10.57;3.30;;;11.90;66.00;;;;;;4966063;28;20208;-69
2022/02/24 10:08:42;;;;;;;5.57;2.77;;;12.10;65.30;;;;;;4970766;28;20442;-70
2022/02/24 10:11:21;;;;;;;7.23;3.17;;;12.30;64.70;;;;;;4970215;28;20489;-70
2022/02/24 10:14:21;;;;;;;8.13;2.97;;;12.40;64.20;;;;;;4966544;28;20426;-71
2022/02/24 10:16:54;;;;;;;7.47;2.80;;;12.50;64.20;;;;;;4968524;28;21026;-70
2022/02/24 10:19:40;;;;;;;3.60;2.40;;;12.70;63.80;;;;;;4970989;28;20446;-69
2022/02/24 10:22:26;;;;;;;3.10;2.20;;;12.70;62.80;;;;;;4968127;28;20422;-70
2022/02/24 10:25:02;;;;;;;4.60;2.73;;;12.60;62.60;;;;;;4971190;28;20983;-69
2022/02/24 10:27:32;;;;;;;5.20;2.30;;;12.70;61.90;;;;;;4960346;28;20443;-70
2022/02/24 10:30:14;;;;;;;13.33;2.80;;;12.80;61.70;;;;;;4968355;28;20473;-70
2022/02/24 10:32:42;;;;;;;6.67;2.20;;;13.00;60.70;;;;;;4971316;28;20427;-69
2022/02/24 10:35:41;;;;;;;5.03;2.23;;;13.10;60.10;;;;;;4971578;28;20437;-71
2022/02/24 10:38:09;;;;;;;4.70;2.13;;;13.10;59.90;;;;;;4975610;28;20443;-72
2022/02/24 10:40:47;;;;;;;7.70;2.40;;;13.20;60.10;;;;;;4971183;28;20797;-69
2022/02/24 10:43:17;;;;;;;3.93;2.20;;;13.20;60.10;;;;;;4965096;28;20498;-69
2022/02/24 10:45:46;;;;;;;10.40;4.07;;;13.30;59.70;;;;;;4967494;28;20435;-71
2022/02/24 10:48:12;;;;;;;3.50;2.23;;;13.30;59.60;;;;;;4965893;28;20446;-67
2022/02/24 10:50:50;;;;;;;7.20;2.33;;;13.40;59.50;;;;;;4971222;28;20504;-71
2022/02/24 10:53:19;;;;;;;4.57;2.60;;;13.40;58.90;;;;;;4969716;28;20434;-70
2022/02/24 10:56:11;;;;;;;5.50;2.40;;;13.60;59.20;;;;;;4971259;28;20496;-71
2022/02/24 10:58:37;;;;;;;4.10;2.13;;;13.80;58.70;;;;;;4963423;28;20440;-71
2022/02/24 11:01:25;;;;;;;3.33;2.30;;;13.90;57.40;;;;;;4964220;28;20426;-68
2022/02/24 11:03:58;;;;;;;5.70;2.60;;;14.10;57.60;;;;;;4968274;28;20688;-70
2022/02/24 11:06:26;;;;;;;9.47;2.47;;;14.40;56.50;;;;;;4970812;28;20453;-70
2022/02/24 11:08:54;;;;;;;3.87;2.17;;;14.50;55.60;;;;;;4970867;28;20418;-68
2022/02/24 11:11:28;;;;;;;3.50;2.43;;;14.40;55.80;;;;;;4961051;28;20428;-70
2022/02/24 11:13:57;;;;;;;4.60;2.60;;;14.40;55.40;;;;;;4968753;28;20427;-68
2022/02/24 11:16:23;;;;;;;3.63;2.47;;;14.40;55.60;;;;;;4964634;28;20469;-68
2022/02/24 11:18:50;;;;;;;4.30;2.57;;;14.50;55.30;;;;;;4966770;28;20430;-71
2022/02/24 11:21:17;;;;;;;3.60;2.10;;;14.70;55.00;;;;;;4967660;28;20452;-71
2022/02/24 11:23:46;;;;;;;6.33;2.10;;;15.00;54.60;;;;;;4973116;28;20472;-71
2022/02/24 11:26:12;;;;;;;6.17;2.37;;;15.10;54.00;;;;;;4960849;28;20503;-71
2022/02/24 11:29:07;;;;;;;4.83;1.90;;;15.20;54.00;;;;;;4963712;28;20838;-71
2022/02/24 11:32:01;;;;;;;8.07;1.70;;;15.30;52.50;;;;;;4963438;28;20270;-70
2022/02/24 11:34:58;;;;;;;7.10;2.00;;;15.30;52.00;;;;;;4964184;28;20462;-70
2022/02/24 11:37:26;;;;;;;5.10;2.10;;;15.20;52.10;;;;;;4964037;28;20784;-70
2022/02/24 11:40:00;;;;;;;7.60;2.30;;;15.30;51.60;;;;;;4967806;28;20488;-72
2022/02/24 11:42:28;;;;;;;3.63;1.70;;;15.20;51.00;;;;;;4963825;28;20423;-69
2022/02/24 11:44:54;;;;;;;3.67;1.90;;;15.20;51.00;;;;;;4965645;28;20584;-71
2022/02/24 11:47:22;;;;;;;3.00;1.70;;;15.10;51.00;;;;;;4962173;28;20452;-71
2022/02/24 11:49:53;;;;;;;4.13;2.30;;;15.10;51.00;;;;;;4966458;28;20829;-69
2022/02/24 11:52:22;;;;;;;9.47;2.17;;;14.90;50.30;;;;;;4967792;28;20423;-70
2022/02/24 11:54:48;;;;;;;5.90;1.97;;;14.80;50.50;;;;;;4964573;28;21255;-72
2022/02/24 11:57:35;;;;;;;3.73;1.67;;;14.80;50.50;;;;;;4969281;28;20458;-70
2022/02/24 12:00:12;;;;;;;3.60;1.90;;;14.80;50.70;;;;;;4967878;28;20431;-69
2022/02/24 12:02:44;;;;;;;3.50;1.90;;;14.80;50.50;;;;;;4964780;28;20407;-71
2022/02/24 12:05:16;;;;;;;4.97;1.80;;;14.50;50.10;;;;;;4974314;28;20813;-70
2022/02/24 12:08:01;;;;;;;4.80;1.93;;;14.50;50.60;;;;;;4976274;28;20454;-71
2022/02/24 12:10:49;;;;;;;2.67;1.93;;;14.40;50.20;;;;;;4967328;28;20526;-71
2022/02/24 12:13:34;;;;;;;4.00;2.00;;;14.40;49.70;;;;;;4970793;28;20444;-70
2022/02/24 12:16:20;;;;;;;3.23;1.83;;;14.40;49.70;;;;;;4982748;28;20812;-72
2022/02/24 12:18:48;;;;;;;2.83;1.90;;;14.40;50.20;;;;;;4980044;28;20427;-71
2022/02/24 12:21:37;;;;;;;5.47;2.10;;;14.40;50.20;;;;;;4974502;28;20423;-70
2022/02/24 12:24:14;;;;;;;3.90;1.67;;;14.50;50.20;;;;;;4979323;28;20477;-71
2022/02/24 12:26:48;;;;;;;2.60;1.70;;;14.70;50.20;;;;;;4963617;28;20515;-69
2022/02/24 12:29:39;;;;;;;2.70;1.70;;;14.80;49.40;;;;;;4969796;28;20924;-71
2022/02/24 12:32:07;;;;;;;6.23;2.20;;;14.70;49.40;;;;;;4972641;28;20418;-71
2022/02/24 12:34:34;;;;;;;4.13;2.27;;;14.60;49.70;;;;;;4974024;28;20411;-70
2022/02/24 12:37:07;;;;;;;4.53;2.03;;;14.50;49.70;;;;;;4974145;28;20446;-71
2022/02/24 12:39:34;;;;;;;3.93;1.67;;;14.50;50.10;;;;;;4967609;28;20941;-70
2022/02/24 12:42:05;;;;;;;3.23;1.83;;;14.50;49.90;;;;;;4972878;28;20431;-69
2022/02/24 12:44:31;;;;;;;5.30;1.70;;;14.30;50.20;;;;;;4967740;28;20600;-69
2022/02/24 12:46:58;;;;;;;2.33;1.60;;;14.20;50.50;;;;;;4972136;28;20439;-71
2022/02/24 12:49:25;;;;;;;2.80;1.60;;;14.20;50.70;;;;;;4971110;28;20417;-70
2022/02/24 12:51:58;;;;;;;4.50;1.83;;;14.20;50.90;;;;;;4972216;28;20469;-69
2022/02/24 12:54:26;;;;;;;4.63;2.17;;;14.20;50.90;;;;;;4973105;28;20463;-72
2022/02/24 12:56:52;;;;;;;16.50;2.53;;;14.20;50.70;;;;;;4970502;28;20530;-71
2022/02/24 12:59:19;;;;;;;5.20;1.90;;;14.30;50.70;;;;;;4973343;28;20557;-72